Garcia Miguel — CUGT9 — position and weather

sailwx.info

Track history (hours):
 
Tides and Currents Weather Stations Pressure Air Temp Water Temp Dewpoint Dewpoint Depression Visibility Wind Speed Wind Dir Waves Ship Positions

Garcia Miguel

Last reported at 2017-Mar-19 00:29 UTC. Time now 2017-Mar-23 10:36 UTC.
Position N 38°56' W 009°30'.

Length 20 m.

Type: Fishing. MMSI: 263500286.

Date/timePositionNaut miles runAvg speedWind from/ knotsBaromVisibWave heightAir tempDewpointWater temp
2017-Mar-19 00:29N 38°56' W 009°30'13 6.8
2017-Mar-18 22:32N 38°43' W 009°32'7 6.9
2017-Mar-18 21:33N 38°37' W 009°27'7 7.0
2017-Mar-18 20:33N 38°31' W 009°22'7 6.9
2017-Mar-18 19:34N 38°26' W 009°17'6 6.1
2017-Mar-18 18:33N 38°24' W 009°09'3 2.9
2017-Mar-18 17:34N 38°26' W 009°07'0 0.0
2017-Mar-18 16:33N 38°26' W 009°07'0 0.0
2017-Mar-18 15:34N 38°26' W 009°07'0 0.0
2017-Mar-18 14:34N 38°26' W 009°07'0 0.0
2017-Mar-18 13:33N 38°26' W 009°07'5 5.3
2017-Mar-18 12:34N 38°23' W 009°12'8 7.8
2017-Mar-18 11:34N 38°21' W 009°22'8 7.6
2017-Mar-18 10:34N 38°20' W 009°31'8 7.6
2017-Mar-18 09:34N 38°20' W 009°41'8 7.5
2017-Mar-18 08:34N 38°19' W 009°50'7 7.5
2017-Mar-18 07:34N 38°18' W 009°60'7 7.2
2017-Mar-18 06:33N 38°17' W 010°09'7 7.3
2017-Mar-18 05:34N 38°17' W 010°18'7 7.3
2017-Mar-18 04:34N 38°17' W 010°28'7 7.2
2017-Mar-18 03:34N 38°17' W 010°37'7 7.0
2017-Mar-18 02:30N 38°16' W 010°46'7 7.0
2017-Mar-18 01:33N 38°16' W 010°55'7 7.3
2017-Mar-18 00:33N 38°15' W 011°04'  
Track history (hours):
 
Tides and Currents Weather Stations Pressure Air Temp Water Temp Dewpoint Dewpoint Depression Visibility Wind Speed Wind Dir Waves Ship Positions

Garcia Miguel

Last reported at 2017-Mar-19 00:29 UTC. Time now 2017-Mar-23 10:36 UTC.
Position N 38°56' W 009°30'.

Length 20 m.

Type: Fishing. MMSI: 263500286.

Date/timePositionNaut miles runAvg speedWind from/ knotsBaromVisibWave heightAir tempDewpointWater temp
2017-Mar-19 00:29N 38°56' W 009°30'13 6.8
2017-Mar-18 22:32N 38°43' W 009°32'7 6.9
2017-Mar-18 21:33N 38°37' W 009°27'7 7.0
2017-Mar-18 20:33N 38°31' W 009°22'7 6.9
2017-Mar-18 19:34N 38°26' W 009°17'6 6.1
2017-Mar-18 18:33N 38°24' W 009°09'3 2.9
2017-Mar-18 17:34N 38°26' W 009°07'0 0.0
2017-Mar-18 16:33N 38°26' W 009°07'0 0.0
2017-Mar-18 15:34N 38°26' W 009°07'0 0.0
2017-Mar-18 14:34N 38°26' W 009°07'0 0.0
2017-Mar-18 13:33N 38°26' W 009°07'5 5.3
2017-Mar-18 12:34N 38°23' W 009°12'8 7.8
2017-Mar-18 11:34N 38°21' W 009°22'8 7.6
2017-Mar-18 10:34N 38°20' W 009°31'8 7.6
2017-Mar-18 09:34N 38°20' W 009°41'8 7.5
2017-Mar-18 08:34N 38°19' W 009°50'7 7.5
2017-Mar-18 07:34N 38°18' W 009°60'7 7.2
2017-Mar-18 06:33N 38°17' W 010°09'7 7.3
2017-Mar-18 05:34N 38°17' W 010°18'7 7.3
2017-Mar-18 04:34N 38°17' W 010°28'7 7.2
2017-Mar-18 03:34N 38°17' W 010°37'7 7.0
2017-Mar-18 02:30N 38°16' W 010°46'7 7.0
2017-Mar-18 01:33N 38°16' W 010°55'7 7.3
2017-Mar-18 00:33N 38°15' W 011°04'  

Dump ship's entire track history